createdAt,value
2022-11-25T00:01:04.619Z,9.10
2022-11-25T00:04:07.717Z,9.40
2022-11-25T00:07:10.881Z,9.00
2022-11-25T00:10:15.378Z,8.70
2022-11-25T00:13:18.496Z,9.30
2022-11-25T00:16:23.233Z,8.20
2022-11-25T00:19:26.373Z,7.03
2022-11-25T00:22:29.495Z,6.30
2022-11-25T00:25:34.129Z,7.53
2022-11-25T00:28:37.808Z,6.90
2022-11-25T00:31:41.840Z,6.73
2022-11-25T00:34:45.037Z,6.70
2022-11-25T00:37:48.215Z,6.53
2022-11-25T00:41:15.884Z,5.80
2022-11-25T00:44:38.847Z,5.40
2022-11-25T00:47:42.546Z,6.17
2022-11-25T00:50:45.655Z,5.87
2022-11-25T00:53:48.733Z,6.93
2022-11-25T00:56:53.749Z,7.07
2022-11-25T00:59:57.051Z,5.17
2022-11-25T01:03:00.169Z,6.47
2022-11-25T01:06:03.592Z,5.57
2022-11-25T01:09:08.097Z,5.67
2022-11-25T01:12:12.736Z,5.27
2022-11-25T01:15:15.937Z,5.73
2022-11-25T01:18:19.058Z,5.50
2022-11-25T01:21:24.127Z,6.10
2022-11-25T01:24:27.504Z,4.50
2022-11-25T01:27:32.027Z,5.23
2022-11-25T01:30:40.900Z,4.20
2022-11-25T01:33:45.634Z,3.90
2022-11-25T01:36:49.174Z,3.90
2022-11-25T01:39:52.270Z,4.10
2022-11-25T01:42:56.842Z,4.43
2022-11-25T01:46:07.067Z,4.27
2022-11-25T01:49:16.363Z,3.73
2022-11-25T01:52:23.401Z,4.10
2022-11-25T01:55:30.856Z,4.10
2022-11-25T01:58:38.876Z,3.73
2022-11-25T02:01:42.067Z,3.80
2022-11-25T02:04:47.807Z,3.60
2022-11-25T02:07:52.544Z,5.10
2022-11-25T02:10:56.875Z,3.93
2022-11-25T02:14:01.768Z,4.73
2022-11-25T02:17:05.001Z,4.20
2022-11-25T02:20:10.133Z,8.00
2022-11-25T02:23:22.282Z,3.70
2022-11-25T02:26:26.794Z,4.57
2022-11-25T02:29:30.201Z,4.17
2022-11-25T02:32:33.305Z,2.77
2022-11-25T02:35:38.167Z,3.93
2022-11-25T02:38:46.834Z,4.20
2022-11-25T02:41:56.866Z,4.77
2022-11-25T02:44:59.949Z,4.63
2022-11-25T02:48:03.067Z,3.27
2022-11-25T02:51:06.854Z,3.37
2022-11-25T02:54:10.241Z,4.60
2022-11-25T02:57:14.702Z,4.77
2022-11-25T03:00:19.343Z,3.00
2022-11-25T03:03:22.713Z,2.90
2022-11-25T03:06:25.842Z,3.17
2022-11-25T03:09:29.020Z,3.40
2022-11-25T03:12:33.539Z,3.00
2022-11-25T03:15:37.101Z,3.00
2022-11-25T03:18:40.215Z,2.60
2022-11-25T03:21:43.293Z,1.90
2022-11-25T03:24:46.384Z,2.80
2022-11-25T03:27:50.912Z,2.10
2022-11-25T03:30:54.005Z,2.30
2022-11-25T03:33:57.227Z,2.77
2022-11-25T03:37:00.365Z,2.57
2022-11-25T03:40:03.922Z,4.60
2022-11-25T03:43:08.381Z,3.63
2022-11-25T03:46:11.539Z,2.90
2022-11-25T03:49:14.710Z,2.13
2022-11-25T03:52:17.878Z,1.87
2022-11-25T03:55:21.100Z,2.00
2022-11-25T03:58:25.579Z,1.90
2022-11-25T04:01:28.780Z,2.47
2022-11-25T04:04:32.208Z,2.00
2022-11-25T04:07:35.348Z,2.10
2022-11-25T04:10:38.517Z,2.53
2022-11-25T04:13:42.046Z,2.47
2022-11-25T04:16:45.269Z,2.33
2022-11-25T04:19:48.541Z,1.83
2022-11-25T04:22:51.637Z,2.30
2022-11-25T04:25:54.772Z,2.40
2022-11-25T04:28:59.250Z,2.17
2022-11-25T04:32:02.331Z,2.27
2022-11-25T04:35:06.095Z,2.80
2022-11-25T04:38:09.200Z,1.90
2022-11-25T04:41:12.317Z,2.20
2022-11-25T04:44:16.782Z,2.33
2022-11-25T04:47:19.871Z,3.03
2022-11-25T04:50:24.753Z,2.10
2022-11-25T04:53:27.870Z,2.30
2022-11-25T04:56:31.023Z,2.47
2022-11-25T04:59:41.404Z,1.90
2022-11-25T05:02:44.643Z,2.17
2022-11-25T05:05:47.778Z,2.73
2022-11-25T05:08:51.493Z,2.37
2022-11-25T05:11:54.611Z,3.40
2022-11-25T05:14:59.436Z,2.50
2022-11-25T05:18:02.521Z,2.30
2022-11-25T05:21:07.573Z,3.10
2022-11-25T05:24:11.017Z,2.43
2022-11-25T05:27:14.890Z,2.90
2022-11-25T05:30:19.583Z,3.50
2022-11-25T05:33:22.957Z,2.80
2022-11-25T05:36:26.101Z,2.73
2022-11-25T05:39:29.208Z,3.00
2022-11-25T05:42:32.297Z,7.27
2022-11-25T05:45:39.293Z,8.87
2022-11-25T05:48:42.482Z,8.77
2022-11-25T05:51:46.027Z,9.30
2022-11-25T05:54:51.261Z,8.30
2022-11-25T05:57:59.537Z,8.93
2022-11-25T06:01:08.216Z,9.00
2022-11-25T06:04:11.648Z,9.50
2022-11-25T06:07:14.811Z,10.60
2022-11-25T06:10:18.273Z,11.23
2022-11-25T06:13:21.991Z,10.87
2022-11-25T06:16:26.803Z,10.10
2022-11-25T06:19:30.015Z,11.03
2022-11-25T06:22:33.103Z,9.63
2022-11-25T06:25:36.598Z,9.63
2022-11-25T06:28:39.711Z,9.30
2022-11-25T06:31:44.285Z,9.13
2022-11-25T06:34:47.419Z,9.27
2022-11-25T06:37:50.537Z,9.17
2022-11-25T06:40:56.396Z,10.27
2022-11-25T06:44:02.225Z,9.70
2022-11-25T06:47:06.787Z,10.70
2022-11-25T06:50:10.170Z,9.03
2022-11-25T06:53:13.260Z,9.50
2022-11-25T06:56:18.130Z,9.50
2022-11-25T06:59:22.060Z,7.90
2022-11-25T07:02:26.802Z,7.37
2022-11-25T07:05:29.990Z,7.10
2022-11-25T07:08:34.352Z,6.70
2022-11-25T07:11:40.617Z,4.70
2022-11-25T07:14:43.772Z,5.60
2022-11-25T07:17:48.256Z,5.40
2022-11-25T07:20:51.404Z,5.57
2022-11-25T07:23:54.588Z,5.40
2022-11-25T07:26:58.085Z,5.83
2022-11-25T07:30:41.542Z,5.67
2022-11-25T07:33:25.764Z,4.70
2022-11-25T07:36:29.955Z,4.17
2022-11-25T07:39:33.138Z,6.67
2022-11-25T07:42:36.299Z,6.27
2022-11-25T07:45:39.413Z,6.20
2022-11-25T07:48:45.733Z,7.23
2022-11-25T07:51:51.435Z,7.90
2022-11-25T07:54:54.765Z,7.50
2022-11-25T07:57:57.851Z,7.30
2022-11-25T08:01:03.640Z,5.53
2022-11-25T08:04:08.960Z,5.50
2022-11-25T08:07:12.288Z,7.00
2022-11-25T08:10:15.870Z,6.80
2022-11-25T08:13:19.002Z,6.63
2022-11-25T08:16:27.780Z,5.83
2022-11-25T08:19:32.394Z,5.87
2022-11-25T08:22:35.551Z,4.87
2022-11-25T08:25:43.022Z,6.77
2022-11-25T08:28:49.384Z,6.23
2022-11-25T08:31:52.562Z,5.80
2022-11-25T08:34:57.126Z,5.50
2022-11-25T08:38:00.245Z,6.40
2022-11-25T08:41:03.685Z,7.87
2022-11-25T08:44:09.878Z,7.87
2022-11-25T08:47:12.971Z,9.07
2022-11-25T08:50:17.928Z,9.47
2022-11-25T08:53:21.831Z,7.37
2022-11-25T08:56:26.550Z,7.00
2022-11-25T08:59:29.768Z,7.90
2022-11-25T09:02:33.019Z,9.00
2022-11-25T09:05:41.974Z,8.40
2022-11-25T09:08:45.752Z,7.97
2022-11-25T09:11:49.011Z,7.80
2022-11-25T09:14:52.155Z,7.23
2022-11-25T09:18:00.671Z,7.40
2022-11-25T09:21:09.795Z,7.07
2022-11-25T09:24:13.068Z,8.10
2022-11-25T09:27:16.245Z,5.50
2022-11-25T09:30:19.623Z,4.40
2022-11-25T09:33:22.729Z,4.67
2022-11-25T09:36:27.361Z,4.30
2022-11-25T09:39:31.072Z,4.60
2022-11-25T09:43:03.908Z,4.27
2022-11-25T09:46:33.048Z,4.00
2022-11-25T09:49:56.524Z,5.17
2022-11-25T09:53:09.677Z,6.07
2022-11-25T09:56:22.055Z,8.00
2022-11-25T09:59:31.829Z,6.17
2022-11-25T10:02:40.750Z,6.90
2022-11-25T10:05:48.534Z,6.50
2022-11-25T10:08:56.515Z,6.73
2022-11-25T10:12:04.615Z,7.40
2022-11-25T10:15:14.314Z,6.20
2022-11-25T10:18:24.239Z,6.20
2022-11-25T10:21:28.138Z,5.50
2022-11-25T10:24:34.967Z,5.17
2022-11-25T10:27:46.980Z,6.73
2022-11-25T10:30:53.925Z,5.40
2022-11-25T10:34:00.167Z,5.53
2022-11-25T10:37:06.812Z,5.60
2022-11-25T10:40:16.211Z,6.83
2022-11-25T10:43:19.744Z,5.93
2022-11-25T10:46:56.870Z,7.83
2022-11-25T10:50:09.623Z,5.37
2022-11-25T10:53:15.918Z,7.00
2022-11-25T10:56:20.714Z,8.50
2022-11-25T10:59:30.085Z,6.77
2022-11-25T11:02:40.949Z,6.87
2022-11-25T11:05:49.202Z,7.10
2022-11-25T11:08:52.397Z,7.40
2022-11-25T11:11:56.921Z,7.80
2022-11-25T11:15:24.268Z,8.13
2022-11-25T11:18:31.362Z,7.67
2022-11-25T11:21:36.514Z,6.70
2022-11-25T11:24:41.871Z,6.68
2022-11-25T11:27:46.893Z,5.72
2022-11-25T11:30:57.759Z,6.30
2022-11-25T11:34:15.242Z,6.07
2022-11-25T11:37:37.849Z,6.03
2022-11-25T11:40:44.823Z,5.07
2022-11-25T11:44:02.509Z,4.80
2022-11-25T11:47:18.717Z,4.50
2022-11-25T11:50:28.551Z,3.97
2022-11-25T11:53:38.031Z,4.25
2022-11-25T11:56:45.284Z,3.95
2022-11-25T11:59:53.454Z,4.43
2022-11-25T12:03:05.280Z,3.88
2022-11-25T12:06:12.009Z,2.65
2022-11-25T12:09:20.986Z,3.38
2022-11-25T12:12:33.716Z,3.05
2022-11-25T12:15:45.263Z,3.72
2022-11-25T12:18:53.531Z,3.80
2022-11-25T12:22:01.728Z,6.03
2022-11-25T12:25:11.978Z,3.63
2022-11-25T12:28:19.740Z,3.35
2022-11-25T12:31:30.206Z,3.13
2022-11-25T12:34:41.099Z,3.60
2022-11-25T12:37:48.927Z,2.80
2022-11-25T12:41:00.794Z,3.33
2022-11-25T12:44:11.217Z,3.00
2022-11-25T12:47:15.742Z,2.95
2022-11-25T12:50:24.550Z,2.75
2022-11-25T12:53:40.375Z,2.40
2022-11-25T12:57:01.714Z,2.30
2022-11-25T13:00:44.391Z,2.45
2022-11-25T13:04:04.626Z,1.98
2022-11-25T13:07:27.975Z,2.30
2022-11-25T13:11:06.006Z,1.75
2022-11-25T13:14:20.535Z,2.10
2022-11-25T13:17:25.371Z,2.95
2022-11-25T13:20:51.612Z,2.90
2022-11-25T13:23:57.330Z,2.60
2022-11-25T13:27:01.939Z,2.80
2022-11-25T13:30:25.591Z,2.70
2022-11-25T13:34:00.451Z,2.25
2022-11-25T13:37:24.181Z,3.40
2022-11-25T13:40:39.709Z,6.13
2022-11-25T13:44:01.177Z,12.97
2022-11-25T13:47:30.730Z,9.67
2022-11-25T13:50:55.427Z,5.70
2022-11-25T13:54:01.230Z,4.40
2022-11-25T13:57:31.200Z,3.07
2022-11-25T14:00:49.600Z,4.83
2022-11-25T14:04:00.425Z,2.20
2022-11-25T14:07:15.716Z,5.27
2022-11-25T14:10:34.969Z,2.83
2022-11-25T14:13:56.102Z,2.43
2022-11-25T14:17:15.640Z,3.07
2022-11-25T14:20:38.374Z,3.03
2022-11-25T14:24:13.668Z,2.90
2022-11-25T14:27:19.367Z,2.53
2022-11-25T14:30:24.803Z,2.20
2022-11-25T14:33:34.352Z,3.20
2022-11-25T14:36:41.982Z,2.80
2022-11-25T14:39:51.015Z,3.10
2022-11-25T14:42:59.595Z,3.17
2022-11-25T14:46:15.735Z,4.47
2022-11-25T14:49:44.934Z,8.00
2022-11-25T14:52:44.004Z,2.80
2022-11-25T14:55:49.901Z,5.20
2022-11-25T14:58:55.214Z,3.20
2022-11-25T15:01:59.746Z,3.00
2022-11-25T15:05:09.322Z,3.97
2022-11-25T15:08:17.878Z,4.70
2022-11-25T15:11:24.103Z,5.83
2022-11-25T15:14:29.095Z,5.03
2022-11-25T15:17:37.436Z,6.33
2022-11-25T15:20:40.626Z,5.17
2022-11-25T15:23:43.957Z,3.83
2022-11-25T15:26:52.835Z,5.47
2022-11-25T15:29:57.771Z,4.50
2022-11-25T15:33:03.644Z,3.60
2022-11-25T15:36:07.414Z,5.40
2022-11-25T15:39:27.391Z,5.53
2022-11-25T15:42:30.546Z,5.40
2022-11-25T15:45:38.232Z,5.70
2022-11-25T15:48:46.398Z,4.83
2022-11-25T15:51:54.089Z,6.60
2022-11-25T15:55:03.072Z,5.57
2022-11-25T15:58:13.558Z,4.57
2022-11-25T16:01:23.211Z,6.00
2022-11-25T16:04:27.933Z,7.50
2022-11-25T16:07:31.069Z,6.60
2022-11-25T16:10:47.272Z,8.00
2022-11-25T16:13:51.461Z,8.03
2022-11-25T16:17:00.352Z,9.27
2022-11-25T16:20:05.464Z,8.13
2022-11-25T16:23:09.100Z,11.03
2022-11-25T16:26:18.370Z,11.70
2022-11-25T16:29:26.883Z,10.37
2022-11-25T16:32:32.149Z,9.83
2022-11-25T16:35:38.884Z,8.90
2022-11-25T16:38:42.728Z,9.23
2022-11-25T16:41:56.165Z,8.87
2022-11-25T16:45:02.545Z,8.57
2022-11-25T16:48:17.164Z,7.43
2022-11-25T16:51:24.080Z,7.50
2022-11-25T16:54:27.574Z,7.93
2022-11-25T16:57:31.028Z,8.80
2022-11-25T17:00:35.007Z,7.83
2022-11-25T17:03:38.197Z,9.00
2022-11-25T17:06:54.112Z,8.23
2022-11-25T17:10:09.627Z,6.40
2022-11-25T17:13:19.836Z,7.27
2022-11-25T17:16:25.189Z,8.30
2022-11-25T17:19:29.491Z,8.37
2022-11-25T17:22:39.369Z,7.80
2022-11-25T17:25:44.737Z,7.73
2022-11-25T17:28:54.907Z,8.57
2022-11-25T17:31:59.116Z,8.53
2022-11-25T17:35:02.781Z,9.30
2022-11-25T17:38:14.623Z,10.20
2022-11-25T17:41:20.847Z,9.00
2022-11-25T17:44:26.816Z,12.77
2022-11-25T17:47:30.327Z,9.90
2022-11-25T17:50:36.233Z,10.27
2022-11-25T17:53:42.523Z,10.43
2022-11-25T17:56:52.558Z,10.03
2022-11-25T17:59:57.179Z,13.37
2022-11-25T18:03:04.150Z,10.83
2022-11-25T18:06:08.763Z,10.90
2022-11-25T18:09:13.715Z,11.57
2022-11-25T18:12:20.821Z,11.67
2022-11-25T18:15:26.608Z,12.53
2022-11-25T18:18:30.285Z,10.80
2022-11-25T18:21:34.303Z,11.47
2022-11-25T18:24:39.579Z,11.20
2022-11-25T18:27:44.787Z,11.37
2022-11-25T18:30:50.052Z,11.17
2022-11-25T18:33:56.651Z,29.97
2022-11-25T18:37:01.585Z,18.47
2022-11-25T18:40:07.872Z,35.37
2022-11-25T18:43:18.377Z,30.67
2022-11-25T18:46:22.895Z,24.40
2022-11-25T18:49:29.630Z,34.73
2022-11-25T18:52:34.390Z,27.07
2022-11-25T18:55:40.606Z,14.10
2022-11-25T18:58:47.835Z,11.70
2022-11-25T19:01:52.020Z,11.60
2022-11-25T19:04:58.676Z,11.77
2022-11-25T19:08:03.351Z,10.97
2022-11-25T19:11:16.865Z,12.23
2022-11-25T19:14:30.470Z,12.07
2022-11-25T19:17:39.642Z,11.77
2022-11-25T19:20:44.559Z,12.60
2022-11-25T19:23:50.395Z,11.20
2022-11-25T19:26:57.875Z,12.80
2022-11-25T19:30:01.968Z,12.60
2022-11-25T19:33:06.611Z,13.20
2022-11-25T19:36:26.682Z,12.00
2022-11-25T19:39:38.489Z,12.33
2022-11-25T19:42:46.432Z,11.57
2022-11-25T19:45:51.543Z,12.30
2022-11-25T19:48:59.331Z,11.50
2022-11-25T19:52:04.438Z,11.07
2022-11-25T19:55:15.551Z,11.50
2022-11-25T19:58:22.547Z,11.87
2022-11-25T20:01:37.007Z,12.43
2022-11-25T20:04:43.324Z,12.00
2022-11-25T20:07:49.058Z,11.93
2022-11-25T20:10:53.904Z,10.87
2022-11-25T20:14:00.440Z,11.57
2022-11-25T20:17:08.277Z,11.87
2022-11-25T20:20:18.164Z,13.53
2022-11-25T20:23:28.305Z,17.43
2022-11-25T20:26:36.559Z,16.90
2022-11-25T20:29:42.246Z,16.20
2022-11-25T20:32:46.460Z,14.00
2022-11-25T20:35:55.179Z,17.43
2022-11-25T20:39:03.675Z,17.20
2022-11-25T20:42:11.402Z,17.80
2022-11-25T20:45:18.960Z,17.50
2022-11-25T20:48:23.664Z,14.70
2022-11-25T20:51:28.342Z,14.60
2022-11-25T20:54:36.241Z,15.73
2022-11-25T20:57:40.576Z,14.17
2022-11-25T21:00:55.562Z,13.70
2022-11-25T21:04:02.581Z,10.60
2022-11-25T21:07:09.013Z,13.00
2022-11-25T21:10:25.907Z,10.70
2022-11-25T21:13:31.519Z,12.20
2022-11-25T21:16:38.461Z,13.10
2022-11-25T21:19:42.217Z,12.20
2022-11-25T21:22:48.610Z,11.70
2022-11-25T21:25:52.820Z,11.70
2022-11-25T21:28:56.626Z,13.57
2022-11-25T21:32:01.555Z,10.53
2022-11-25T21:35:05.487Z,11.20
2022-11-25T21:38:16.414Z,11.10
2022-11-25T21:41:20.734Z,10.60
2022-11-25T21:44:29.809Z,11.00
2022-11-25T21:47:34.321Z,9.67
2022-11-25T21:50:37.491Z,10.10
2022-11-25T21:53:40.867Z,10.10
2022-11-25T21:56:44.700Z,8.83
2022-11-25T21:59:48.679Z,9.10
2022-11-25T22:02:53.324Z,9.97
2022-11-25T22:05:56.827Z,10.00
2022-11-25T22:08:59.961Z,9.00
2022-11-25T22:12:05.118Z,9.70
2022-11-25T22:15:14.084Z,9.47
2022-11-25T22:18:28.496Z,9.43
2022-11-25T22:21:31.637Z,9.70
2022-11-25T22:24:35.308Z,10.33
2022-11-25T22:27:39.464Z,9.70
2022-11-25T22:30:47.529Z,10.40
2022-11-25T22:33:52.421Z,8.97
2022-11-25T22:36:55.549Z,8.30
2022-11-25T22:39:58.648Z,8.70
2022-11-25T22:43:02.002Z,8.80
2022-11-25T22:46:05.904Z,7.73
2022-11-25T22:49:24.993Z,8.40
2022-11-25T22:52:30.848Z,8.27
2022-11-25T22:55:34.783Z,8.87
2022-11-25T22:58:37.879Z,8.03
2022-11-25T23:01:41.358Z,9.10
2022-11-25T23:04:54.744Z,9.63
2022-11-25T23:07:58.083Z,8.50
2022-11-25T23:11:01.273Z,9.07
2022-11-25T23:14:04.375Z,9.70
2022-11-25T23:17:12.485Z,9.20
2022-11-25T23:20:19.790Z,9.77
2022-11-25T23:23:25.316Z,8.63
2022-11-25T23:29:48.956Z,9.20
2022-11-25T23:32:54.452Z,7.90
2022-11-25T23:36:02.503Z,7.87
2022-11-25T23:39:16.123Z,7.93
2022-11-25T23:42:20.815Z,8.27
2022-11-25T23:45:27.058Z,8.90
2022-11-25T23:48:31.852Z,8.77
2022-11-25T23:51:37.110Z,10.43
2022-11-25T23:54:43.534Z,8.40
2022-11-25T23:57:48.997Z,8.77
